Time;durP1;ratioP1;P1;durP2;ratioP2;P2;SDS_P1;SDS_P2;PMS_P1;PMS_P2;Temp;Humidity;BMP_temperature;BMP_pressure;BME280_temperature;BME280_humidity;BME280_pressure;Samples;Min_cycle;Max_cycle;Signal;HPM_P1;HPM_P2
2022/08/08 00:01:56;;;;;;;2.28;1.50;;;16.60;99.90;;;;;;5044360;28;20100;-59
2022/08/08 00:04:54;;;;;;;5.57;1.80;;;16.50;99.90;;;;;;5046744;28;20049;-58
2022/08/08 00:07:27;;;;;;;3.15;1.70;;;16.60;99.90;;;;;;5041359;28;20041;-61
2022/08/08 00:10:05;;;;;;;5.43;1.50;;;16.50;99.90;;;;;;5047804;28;20048;-59
2022/08/08 00:12:46;;;;;;;3.30;1.70;;;16.50;99.90;;;;;;5039457;28;20026;-61
2022/08/08 00:15:20;;;;;;;6.53;1.63;;;16.30;99.90;;;;;;5040158;28;20378;-60
2022/08/08 00:18:10;;;;;;;2.75;1.60;;;16.20;99.90;;;;;;5044680;28;20116;-59
2022/08/08 00:20:53;;;;;;;2.47;1.60;;;16.20;99.90;;;;;;5051347;28;20029;-61
2022/08/08 00:23:34;;;;;;;2.40;1.50;;;16.10;99.90;;;;;;5043814;28;20037;-60
2022/08/08 00:26:03;;;;;;;5.38;1.92;;;16.00;99.90;;;;;;5051225;28;20095;-60
2022/08/08 00:28:37;;;;;;;7.10;1.40;;;16.00;99.90;;;;;;5050171;28;20560;-60
2022/08/08 00:31:13;;;;;;;5.20;1.92;;;15.90;99.90;;;;;;5042057;28;20514;-60
2022/08/08 00:33:46;;;;;;;5.07;1.95;;;15.90;99.90;;;;;;5044230;28;20051;-59
2022/08/08 00:36:26;;;;;;;3.83;2.13;;;15.80;99.90;;;;;;5046245;28;20035;-61
2022/08/08 00:39:12;;;;;;;4.95;2.00;;;15.80;99.90;;;;;;5046655;28;20034;-61
2022/08/08 00:42:07;;;;;;;3.15;2.20;;;15.80;99.90;;;;;;5048264;28;20486;-60
2022/08/08 00:45:00;;;;;;;4.15;2.20;;;15.90;99.90;;;;;;5048285;28;20036;-60
2022/08/08 00:47:43;;;;;;;3.38;2.13;;;15.90;99.90;;;;;;5040488;28;20029;-60
2022/08/08 00:50:31;;;;;;;7.18;2.60;;;15.80;99.90;;;;;;5045248;28;20032;-60
2022/08/08 00:53:02;;;;;;;3.80;2.47;;;15.70;99.90;;;;;;5048997;28;20521;-60
2022/08/08 00:55:46;;;;;;;4.80;2.45;;;15.70;99.90;;;;;;5048730;28;20033;-61
2022/08/08 00:58:33;;;;;;;4.37;2.30;;;15.60;99.90;;;;;;5042164;28;20071;-60
2022/08/08 01:01:21;;;;;;;5.43;2.38;;;15.50;99.90;;;;;;5040799;28;20268;-60
2022/08/08 01:04:25;;;;;;;3.72;2.13;;;15.60;99.90;;;;;;5042925;28;20021;-60
2022/08/08 01:07:05;;;;;;;4.97;1.93;;;15.70;99.90;;;;;;5045000;28;20031;-60
2022/08/08 01:10:08;;;;;;;2.67;1.77;;;15.80;99.90;;;;;;5045604;28;20060;-61
2022/08/08 01:13:11;;;;;;;2.88;2.33;;;15.80;99.90;;;;;;5038562;28;20024;-62
2022/08/08 01:15:48;;;;;;;3.28;1.92;;;15.70;99.90;;;;;;5045122;28;20107;-61
2022/08/08 01:18:29;;;;;;;4.78;1.95;;;15.70;99.90;;;;;;5046730;28;20021;-61
2022/08/08 01:21:40;;;;;;;4.43;2.38;;;15.50;99.90;;;;;;5049259;28;20021;-61
2022/08/08 01:24:39;;;;;;;2.92;2.30;;;15.40;99.90;;;;;;5023508;28;20419;-61
2022/08/08 01:27:23;;;;;;;5.65;3.03;;;15.30;99.90;;;;;;5050963;28;20418;-59
2022/08/08 01:30:34;;;;;;;4.28;2.25;;;15.20;99.90;;;;;;5045435;28;20024;-61
2022/08/08 01:33:37;;;;;;;5.97;2.92;;;15.10;99.90;;;;;;5049119;28;20556;-61
2022/08/08 01:36:39;;;;;;;8.35;3.15;;;15.00;99.90;;;;;;5034109;28;20662;-62
2022/08/08 01:39:23;;;;;;;7.28;2.65;;;14.90;99.90;;;;;;5042919;28;20035;-61
2022/08/08 01:41:49;;;;;;;6.40;2.78;;;14.80;99.90;;;;;;5044493;28;20021;-61
2022/08/08 01:44:44;;;;;;;4.78;3.38;;;14.80;99.90;;;;;;5046978;28;20047;-60
2022/08/08 01:47:14;;;;;;;;;;;14.80;99.90;;;;;;5039699;28;20037;-61
2022/08/08 01:50:05;;;;;;;3.70;2.92;;;14.80;99.90;;;;;;5044159;28;20035;-62
2022/08/08 01:52:58;;;;;;;5.57;3.00;;;14.90;99.90;;;;;;5048125;28;20434;-61
2022/08/08 01:55:39;;;;;;;3.90;2.85;;;14.90;99.90;;;;;;5027208;28;20506;-61
2022/08/08 01:58:37;;;;;;;6.18;2.65;;;15.00;99.90;;;;;;5046411;28;20093;-58
2022/08/08 02:01:37;;;;;;;3.42;2.53;;;14.90;99.90;;;;;;5039141;28;20013;-60
2022/08/08 02:04:35;;;;;;;3.80;2.72;;;14.80;99.90;;;;;;5037788;28;20060;-60
2022/08/08 02:07:07;;;;;;;7.32;4.05;;;14.60;99.90;;;;;;5046589;28;20043;-59
2022/08/08 02:09:54;;;;;;;6.60;3.50;;;14.50;99.90;;;;;;5049361;28;20540;-61
2022/08/08 02:12:31;;;;;;;6.32;3.15;;;14.40;99.90;;;;;;5046253;28;20035;-62
2022/08/08 02:15:08;;;;;;;7.28;3.78;;;14.40;99.90;;;;;;5039898;28;20029;-61
2022/08/08 02:17:43;;;;;;;6.95;3.17;;;14.40;99.90;;;;;;5042139;28;20025;-57
2022/08/08 02:20:41;;;;;;;11.40;3.60;;;14.30;99.90;;;;;;5038127;28;20040;-59
2022/08/08 02:23:30;;;;;;;6.45;3.92;;;14.30;99.90;;;;;;5044709;28;20049;-61
2022/08/08 02:26:14;;;;;;;7.22;3.17;;;14.30;99.90;;;;;;5042073;28;20169;-60
2022/08/08 02:29:15;;;;;;;4.68;3.17;;;14.20;99.90;;;;;;5043597;28;20021;-61
2022/08/08 02:31:55;;;;;;;7.45;3.85;;;14.30;99.90;;;;;;5042613;28;20033;-61
2022/08/08 02:34:35;;;;;;;5.88;3.53;;;14.40;99.90;;;;;;5044219;28;20021;-61
2022/08/08 02:37:32;;;;;;;6.35;3.78;;;14.60;99.90;;;;;;5024365;28;20421;-58
2022/08/08 02:40:18;;;;;;;5.93;3.47;;;14.60;99.90;;;;;;5044968;28;20024;-60
2022/08/08 02:42:49;;;;;;;7.35;3.33;;;14.70;99.90;;;;;;5040524;28;20033;-61
2022/08/08 02:45:23;;;;;;;6.13;3.40;;;14.70;99.90;;;;;;5044449;28;20028;-61
2022/08/08 02:48:22;;;;;;;6.85;4.07;;;14.70;99.90;;;;;;5041500;28;20026;-60
2022/08/08 02:51:25;;;;;;;6.60;3.90;;;14.60;99.90;;;;;;5041472;28;20107;-61
2022/08/08 02:54:20;;;;;;;8.80;3.70;;;14.60;99.90;;;;;;5042227;28;20475;-60
2022/08/08 02:57:04;;;;;;;8.10;3.25;;;14.60;99.90;;;;;;5041913;22;20049;-57
2022/08/08 03:00:09;;;;;;;7.38;4.55;;;14.40;99.90;;;;;;5018090;28;20033;-57
2022/08/08 03:03:09;;;;;;;8.40;4.05;;;14.30;99.90;;;;;;5015598;28;20022;-56
2022/08/08 03:06:07;;;;;;;7.75;4.50;;;14.20;99.90;;;;;;5015305;28;20106;-60
2022/08/08 03:09:02;;;;;;;7.25;4.85;;;14.10;99.90;;;;;;5015806;28;20117;-60
2022/08/08 03:12:01;;;;;;;7.28;3.88;;;13.90;99.90;;;;;;5008486;28;20086;-56
2022/08/08 03:14:50;;;;;;;4.78;3.40;;;13.90;99.90;;;;;;5017381;28;20030;-60
2022/08/08 03:17:33;;;;;;;6.60;4.28;;;13.80;99.90;;;;;;5016417;28;20022;-58
2022/08/08 03:20:05;;;;;;;8.68;4.00;;;13.70;99.90;;;;;;4975419;28;20044;-59
2022/08/08 03:22:33;;;;;;;7.82;4.10;;;13.60;99.90;;;;;;5013890;28;20055;-58
2022/08/08 03:25:05;;;;;;;7.97;4.50;;;13.60;99.90;;;;;;5009295;28;20045;-60
2022/08/08 03:27:38;;;;;;;7.60;4.25;;;13.50;99.90;;;;;;5016769;28;20108;-59
2022/08/08 03:30:09;;;;;;;7.15;4.78;;;13.40;99.90;;;;;;5011754;28;20028;-59
2022/08/08 03:35:24;;;;;;;9.30;5.43;;;13.30;99.90;;;;;;5012984;28;20516;-59
2022/08/08 03:37:51;;;;;;;12.73;4.55;;;13.30;99.90;;;;;;5009131;28;20030;-56
2022/08/08 03:40:19;;;;;;;7.78;4.40;;;13.30;99.90;;;;;;5015819;28;20033;-57
2022/08/08 03:42:45;;;;;;;8.45;4.47;;;13.30;99.90;;;;;;5018501;28;20022;-60
2022/08/08 03:45:17;;;;;;;9.13;4.72;;;13.30;99.90;;;;;;5015245;28;20029;-59
2022/08/08 03:47:43;;;;;;;8.98;4.85;;;13.20;99.90;;;;;;5017060;28;20029;-60
2022/08/08 03:50:17;;;;;;;9.20;4.93;;;13.20;99.90;;;;;;5022565;28;20022;-59
2022/08/08 03:52:43;;;;;;;7.03;4.53;;;13.20;99.90;;;;;;5010411;28;20025;-59
2022/08/08 03:55:11;;;;;;;7.05;4.30;;;13.20;99.90;;;;;;5015145;28;20036;-58
2022/08/08 03:57:37;;;;;;;5.75;4.53;;;13.20;99.90;;;;;;5024465;28;20033;-55
2022/08/08 04:00:11;;;;;;;7.93;4.43;;;13.30;99.90;;;;;;5018184;28;20030;-59
2022/08/08 04:02:37;;;;;;;8.75;4.80;;;13.30;99.90;;;;;;4996842;28;20044;-59
2022/08/08 04:05:04;;;;;;;10.48;5.10;;;13.30;99.90;;;;;;5014876;28;20450;-59
2022/08/08 04:07:40;;;;;;;10.52;4.57;;;13.40;99.90;;;;;;5014214;28;20044;-57
2022/08/08 04:10:07;;;;;;;8.10;4.78;;;13.40;99.90;;;;;;5010520;28;20486;-58
2022/08/08 04:12:33;;;;;;;9.25;4.63;;;13.40;99.90;;;;;;5014332;28;20033;-59
2022/08/08 04:14:59;;;;;;;12.48;5.40;;;13.50;99.90;;;;;;5014813;28;20479;-57
2022/08/08 04:17:25;;;;;;;9.63;5.70;;;13.50;99.90;;;;;;5021592;28;20045;-56
2022/08/08 04:19:51;;;;;;;11.32;4.93;;;13.60;99.90;;;;;;5013925;28;20121;-59
2022/08/08 04:22:16;;;;;;;13.07;5.57;;;13.70;99.90;;;;;;5015683;28;20099;-59
2022/08/08 04:24:42;;;;;;;13.77;6.07;;;13.70;99.90;;;;;;5014749;28;20030;-59
2022/08/08 04:27:08;;;;;;;10.45;5.88;;;13.80;99.90;;;;;;5018498;28;20025;-58
2022/08/08 04:29:33;;;;;;;9.80;5.05;;;13.90;99.90;;;;;;5018535;28;20051;-58
2022/08/08 04:31:59;;;;;;;14.88;5.72;;;13.90;99.90;;;;;;5021214;28;20029;-57
2022/08/08 04:34:24;;;;;;;8.73;5.22;;;14.00;99.90;;;;;;5014439;28;20396;-57
2022/08/08 04:36:50;;;;;;;9.88;5.22;;;14.10;99.90;;;;;;5021558;28;20899;-59
2022/08/08 04:39:16;;;;;;;8.15;5.45;;;14.10;99.90;;;;;;5013844;28;20029;-60
2022/08/08 04:41:41;;;;;;;8.02;5.30;;;14.20;99.90;;;;;;5015341;28;20030;-58
2022/08/08 04:44:07;;;;;;;10.70;5.80;;;14.20;99.90;;;;;;5018776;28;20034;-59
2022/08/08 04:46:32;;;;;;;8.00;5.05;;;14.30;99.90;;;;;;5013023;28;20030;-59
2022/08/08 04:48:58;;;;;;;10.32;5.55;;;14.30;99.90;;;;;;5014925;28;20048;-57
2022/08/08 04:51:23;;;;;;;9.23;5.90;;;14.30;99.90;;;;;;5012954;28;20053;-59
2022/08/08 04:53:49;;;;;;;10.93;6.18;;;14.30;99.90;;;;;;5012553;28;20026;-60
2022/08/08 04:56:16;;;;;;;11.07;5.95;;;14.40;99.90;;;;;;5019183;28;20221;-58
2022/08/08 04:58:42;;;;;;;10.80;6.18;;;14.30;99.90;;;;;;5021183;28;20485;-60
2022/08/08 05:01:08;;;;;;;12.38;6.53;;;14.40;99.90;;;;;;5017498;28;20032;-60
2022/08/08 05:03:33;;;;;;;12.65;6.25;;;14.40;99.90;;;;;;5017295;28;20026;-56
2022/08/08 05:05:59;;;;;;;12.90;5.82;;;14.40;99.90;;;;;;5003189;28;20057;-58
2022/08/08 05:08:25;;;;;;;14.80;6.38;;;14.50;99.90;;;;;;4997365;28;20152;-59
2022/08/08 05:10:51;;;;;;;12.80;6.35;;;14.50;99.90;;;;;;5015263;28;20022;-61
2022/08/08 05:13:17;;;;;;;10.48;6.00;;;14.50;99.90;;;;;;5020179;28;20053;-59
2022/08/08 05:15:43;;;;;;;18.95;5.25;;;14.50;99.90;;;;;;5011675;28;20144;-61
2022/08/08 05:18:08;;;;;;;11.75;6.20;;;14.60;99.90;;;;;;5023119;28;20391;-59
2022/08/08 05:20:34;;;;;;;11.48;6.50;;;14.60;99.90;;;;;;5021593;28;20048;-59
2022/08/08 05:22:59;;;;;;;10.15;6.60;;;14.70;99.90;;;;;;5012952;28;20061;-58
2022/08/08 05:25:25;;;;;;;14.43;6.28;;;14.70;99.90;;;;;;5015500;28;20022;-56
2022/08/08 05:27:52;;;;;;;12.82;6.65;;;14.80;99.90;;;;;;5016012;28;20034;-56
2022/08/08 05:30:18;;;;;;;12.30;6.75;;;14.80;99.90;;;;;;5014623;28;20486;-59
2022/08/08 05:32:43;;;;;;;12.13;6.78;;;14.90;99.90;;;;;;5021159;28;20029;-56
2022/08/08 05:35:12;;;;;;;10.05;5.78;;;14.90;99.90;;;;;;5015709;28;20432;-58
2022/08/08 05:37:40;;;;;;;12.07;6.13;;;15.00;99.90;;;;;;5016554;28;20033;-58
2022/08/08 05:40:07;;;;;;;11.93;7.05;;;15.00;99.90;;;;;;5014413;28;20060;-57
2022/08/08 05:42:45;;;;;;;15.93;6.40;;;15.10;99.90;;;;;;5018618;28;20044;-58
2022/08/08 05:45:14;;;;;;;9.25;5.65;;;15.20;99.90;;;;;;5010555;28;20041;-59
2022/08/08 05:47:41;;;;;;;12.65;6.03;;;15.20;99.90;;;;;;5021233;28;20030;-58
2022/08/08 05:50:07;;;;;;;9.82;6.03;;;15.30;99.90;;;;;;5018630;28;20024;-58
2022/08/08 05:52:34;;;;;;;15.00;6.57;;;15.30;99.90;;;;;;5022204;28;20022;-59
2022/08/08 05:55:05;;;;;;;8.30;6.03;;;15.40;99.90;;;;;;5014891;28;20518;-58
2022/08/08 05:57:34;;;;;;;10.30;6.57;;;15.40;99.90;;;;;;5012213;28;20034;-55
2022/08/08 06:00:04;;;;;;;11.32;6.35;;;15.60;99.90;;;;;;5008917;28;20496;-60
2022/08/08 06:05:18;;;;;;;12.75;6.47;;;15.70;99.90;;;;;;5011572;28;20111;-59
2022/08/08 06:07:46;;;;;;;12.73;6.47;;;15.80;99.90;;;;;;5018976;28;20468;-56
2022/08/08 06:10:12;;;;;;;15.95;6.95;;;15.80;99.90;;;;;;5015073;28;20029;-58
2022/08/08 06:12:39;;;;;;;14.45;6.80;;;15.90;99.90;;;;;;4996455;28;20372;-56
2022/08/08 06:15:07;;;;;;;12.02;6.03;;;15.90;99.90;;;;;;5003980;28;20033;-59
2022/08/08 06:17:35;;;;;;;12.10;6.10;;;16.00;99.90;;;;;;5007523;28;20021;-58
2022/08/08 06:20:03;;;;;;;13.60;6.10;;;16.00;99.90;;;;;;5003193;28;20029;-57
2022/08/08 06:22:29;;;;;;;10.23;6.25;;;16.10;99.90;;;;;;4999418;28;20440;-59
2022/08/08 06:24:55;;;;;;;14.70;6.55;;;16.20;99.90;;;;;;5014006;28;20072;-56
2022/08/08 06:27:28;;;;;;;12.88;6.38;;;16.20;99.90;;;;;;5016207;28;20022;-59
2022/08/08 06:30:13;;;;;;;11.10;6.28;;;16.30;99.90;;;;;;5013380;28;21602;-59
2022/08/08 06:32:50;;;;;;;9.85;5.90;;;16.40;99.90;;;;;;5015051;28;20044;-58
2022/08/08 06:35:17;;;;;;;12.98;6.32;;;16.40;99.90;;;;;;5016171;28;20030;-58
2022/08/08 06:37:45;;;;;;;9.77;5.97;;;16.50;99.90;;;;;;5016329;28;20076;-58
2022/08/08 06:40:14;;;;;;;10.02;6.18;;;16.50;99.90;;;;;;5012890;28;20097;-58
2022/08/08 06:43:00;;;;;;;10.85;5.90;;;16.60;99.90;;;;;;4996886;28;20030;-59
2022/08/08 06:45:27;;;;;;;9.00;5.75;;;16.70;99.90;;;;;;5012009;28;20068;-60
2022/08/08 06:47:52;;;;;;;11.05;5.88;;;16.80;99.90;;;;;;5013526;28;20026;-59
2022/08/08 06:50:18;;;;;;;9.43;5.75;;;16.90;99.90;;;;;;5012515;28;20037;-60
2022/08/08 06:52:44;;;;;;;16.33;6.88;;;17.00;99.90;;;;;;5013485;28;20076;-59
2022/08/08 06:55:10;;;;;;;9.15;5.65;;;17.10;99.90;;;;;;5013739;28;20029;-60
2022/08/08 06:57:36;;;;;;;11.13;5.50;;;17.20;99.90;;;;;;5012099;28;20053;-57
2022/08/08 07:00:05;;;;;;;10.57;5.45;;;17.30;99.90;;;;;;5008555;28;20026;-57
2022/08/08 07:02:33;;;;;;;12.98;5.80;;;17.40;99.90;;;;;;5009164;28;20110;-59
2022/08/08 07:05:01;;;;;;;12.57;6.22;;;17.40;99.90;;;;;;5012946;28;20080;-59
2022/08/08 07:07:33;;;;;;;8.57;5.50;;;17.40;99.90;;;;;;5015660;28;20033;-59
2022/08/08 07:10:05;;;;;;;8.70;5.10;;;17.50;99.90;;;;;;5013656;28;20022;-57
2022/08/08 07:12:41;;;;;;;13.90;6.15;;;17.60;99.90;;;;;;5012760;28;20030;-58
2022/08/08 07:15:14;;;;;;;10.00;5.70;;;17.70;99.90;;;;;;5013961;28;20029;-58
2022/08/08 07:17:49;;;;;;;11.52;6.05;;;17.80;99.90;;;;;;5016442;28;20014;-57
2022/08/08 07:20:26;;;;;;;;;;;17.90;99.90;;;;;;5009126;28;20536;-56
2022/08/08 07:23:17;;;;;;;12.57;5.18;;;18.00;99.90;;;;;;5016572;28;20409;-56
2022/08/08 07:25:45;;;;;;;8.23;5.63;;;18.10;99.90;;;;;;5015491;28;20034;-59
2022/08/08 07:28:21;;;;;;;14.27;6.20;;;18.10;99.90;;;;;;5010719;28;20014;-59
2022/08/08 07:30:47;;;;;;;11.25;6.93;;;18.20;99.90;;;;;;5012755;28;20396;-57
2022/08/08 07:33:14;;;;;;;11.90;5.43;;;18.30;99.90;;;;;;5015771;28;20022;-58
2022/08/08 07:35:40;;;;;;;11.50;5.70;;;18.40;99.90;;;;;;5011603;28;20072;-59
2022/08/08 07:38:08;;;;;;;7.75;4.85;;;18.50;99.90;;;;;;5012387;28;20072;-58
2022/08/08 07:40:35;;;;;;;21.73;13.13;;;18.50;99.90;;;;;;5008663;28;20034;-58
2022/08/08 07:43:03;;;;;;;9.02;5.80;;;18.60;99.90;;;;;;5012521;28;20083;-59
2022/08/08 07:45:28;;;;;;;8.73;5.57;;;18.60;99.90;;;;;;5008041;28;20114;-59
2022/08/08 07:47:54;;;;;;;8.30;5.55;;;18.70;99.90;;;;;;5006768;28;20409;-58
2022/08/08 07:50:20;;;;;;;16.25;6.10;;;18.80;99.90;;;;;;5007262;28;20034;-57
2022/08/08 07:52:49;;;;;;;12.32;5.63;;;18.90;99.90;;;;;;5007685;28;20030;-57
2022/08/08 07:55:26;;;;;;;9.68;5.03;;;18.90;99.90;;;;;;5008729;28;20037;-59
2022/08/08 07:58:00;;;;;;;17.52;5.82;;;19.00;99.90;;;;;;5000161;28;20518;-58
2022/08/08 08:00:41;;;;;;;11.43;5.57;;;19.20;99.90;;;;;;5004400;28;20131;-60
2022/08/08 08:03:11;;;;;;;13.38;5.15;;;19.20;99.90;;;;;;5007517;28;20113;-59
2022/08/08 08:05:41;;;;;;;9.23;5.45;;;19.30;99.90;;;;;;4992127;28;20090;-59
2022/08/08 08:08:25;;;;;;;7.90;5.03;;;19.40;99.90;;;;;;5013091;28;20527;-60
2022/08/08 08:10:54;;;;;;;10.52;5.15;;;19.50;99.90;;;;;;5019215;28;20057;-58
2022/08/08 08:13:58;;;;;;;10.13;5.35;;;19.60;99.90;;;;;;5010831;28;20026;-59
2022/08/08 08:16:27;;;;;;;9.27;5.20;;;19.80;99.90;;;;;;5004834;28;20057;-57
2022/08/08 08:19:00;;;;;;;13.93;4.70;;;19.90;99.90;;;;;;5007556;28;20030;-57
2022/08/08 08:21:35;;;;;;;10.43;5.00;;;20.00;99.90;;;;;;5008854;28;20408;-59
2022/08/08 08:24:01;;;;;;;11.45;4.45;;;20.00;99.90;;;;;;5006796;28;20316;-58
2022/08/08 08:26:27;;;;;;;14.48;4.65;;;20.20;99.90;;;;;;5010943;28;20518;-59
2022/08/08 08:28:52;;;;;;;10.15;4.43;;;20.40;99.90;;;;;;5014842;28;20044;-57
2022/08/08 08:31:18;;;;;;;7.80;3.45;;;20.40;99.90;;;;;;5006768;28;20036;-59
2022/08/08 08:33:43;;;;;;;9.05;4.10;;;20.50;99.90;;;;;;4992832;28;20138;-58
2022/08/08 08:36:10;;;;;;;9.07;4.07;;;20.60;99.90;;;;;;5013712;28;20499;-59
2022/08/08 08:38:36;;;;;;;8.23;4.05;;;20.70;99.90;;;;;;5011419;28;20077;-58
2022/08/08 08:41:02;;;;;;;9.27;4.40;;;20.90;99.90;;;;;;5010980;28;20574;-57
2022/08/08 08:43:29;;;;;;;7.85;3.97;;;21.00;99.90;;;;;;5010735;28;20503;-58
2022/08/08 08:45:56;;;;;;;5.30;3.35;;;21.00;99.90;;;;;;5010166;28;20057;-57
2022/08/08 08:48:22;;;;;;;6.32;3.05;;;21.10;99.90;;;;;;5008787;28;20033;-59
2022/08/08 08:50:50;;;;;;;5.78;3.35;;;21.20;99.90;;;;;;5011620;28;20045;-59
2022/08/08 08:53:16;;;;;;;16.48;4.60;;;21.30;99.90;;;;;;5014884;28;20400;-58
2022/08/08 08:55:43;;;;;;;7.95;4.35;;;21.50;99.90;;;;;;5016076;28;20045;-56
2022/08/08 08:58:34;;;;;;;9.57;4.18;;;21.50;99.90;;;;;;5014410;28;20096;-57
2022/08/08 09:01:03;;;;;;;8.32;3.30;;;21.50;99.90;;;;;;5051774;22;20053;-63
2022/08/08 09:03:29;;;;;;;6.13;3.03;;;21.60;99.90;;;;;;5021511;28;20047;-62
2022/08/08 09:05:55;;;;;;;6.72;3.60;;;21.70;99.90;;;;;;5030299;28;20021;-62
2022/08/08 09:08:23;;;;;;;8.98;3.42;;;21.90;99.90;;;;;;5032155;28;20565;-62
2022/08/08 09:10:49;;;;;;;7.20;3.58;;;22.00;99.90;;;;;;5038087;28;20029;-63
2022/08/08 09:13:20;;;;;;;6.22;3.50;;;22.10;99.90;;;;;;5033600;28;20108;-63
2022/08/08 09:15:46;;;;;;;9.13;3.05;;;22.20;99.90;;;;;;5038706;28;20080;-62
2022/08/08 09:18:16;;;;;;;8.57;2.90;;;22.40;99.90;;;;;;5034556;28;20096;-63
2022/08/08 09:20:44;;;;;;;3.92;2.38;;;22.60;99.90;;;;;;5029137;28;20455;-61
2022/08/08 09:23:12;;;;;;;3.97;2.47;;;22.80;99.90;;;;;;5011351;28;20025;-64
2022/08/08 09:25:54;;;;;;;7.75;3.10;;;23.00;99.90;;;;;;5017061;28;20022;-62
2022/08/08 09:28:26;;;;;;;4.55;2.35;;;23.20;99.90;;;;;;5020085;28;20038;-62
2022/08/08 09:30:52;;;;;;;6.88;2.90;;;23.20;99.90;;;;;;5029205;28;20131;-62
2022/08/08 09:33:21;;;;;;;4.95;2.55;;;23.40;99.90;;;;;;5028197;28;20079;-62
2022/08/08 09:35:48;;;;;;;7.00;2.63;;;23.30;99.90;;;;;;5029165;28;20431;-61
2022/08/08 09:38:44;;;;;;;5.95;2.47;;;23.40;99.90;;;;;;5034400;28;20060;-62
2022/08/08 09:41:15;;;;;;;6.15;2.38;;;23.50;99.90;;;;;;5037602;28;20024;-63
2022/08/08 09:43:51;;;;;;;9.70;1.75;;;23.50;99.90;;;;;;5033196;28;20018;-62
2022/08/08 09:46:20;;;;;;;3.85;1.73;;;23.80;99.90;;;;;;5030826;28;20394;-62
2022/08/08 09:48:46;;;;;;;2.47;1.42;;;24.10;99.90;;;;;;5034937;28;20070;-63
2022/08/08 09:51:14;;;;;;;7.57;2.30;;;24.40;99.90;;;;;;5027759;28;20037;-63
2022/08/08 09:53:51;;;;;;;2.85;1.63;;;24.60;99.90;;;;;;5029846;28;20517;-63
2022/08/08 09:56:17;;;;;;;3.50;1.83;;;24.50;99.90;;;;;;5025689;28;20464;-63
2022/08/08 09:58:55;;;;;;;12.73;1.75;;;24.60;99.90;;;;;;5022845;28;20036;-63
2022/08/08 10:01:23;;;;;;;5.20;2.00;;;24.60;99.90;;;;;;5025086;28;20084;-63
2022/08/08 10:03:52;;;;;;;4.63;1.88;;;24.80;99.90;;;;;;5032031;28;20065;-63
2022/08/08 10:06:20;;;;;;;4.30;2.00;;;24.80;99.90;;;;;;5032633;28;20555;-63
2022/08/08 10:08:50;;;;;;;2.97;1.83;;;24.90;99.90;;;;;;5029172;28;20156;-61
2022/08/08 10:11:22;;;;;;;4.30;1.88;;;24.80;99.90;;;;;;5032295;28;20029;-63
2022/08/08 10:13:58;;;;;;;5.68;2.28;;;25.00;99.90;;;;;;5032925;28;20044;-63
2022/08/08 10:16:36;;;;;;;7.20;2.20;;;25.30;99.90;;;;;;5029466;28;20041;-63
2022/08/08 10:19:04;;;;;;;5.25;1.80;;;25.50;99.90;;;;;;5034527;28;20457;-60
2022/08/08 10:21:34;;;;;;;6.45;2.17;;;25.80;99.90;;;;;;5032849;28;20029;-62
2022/08/08 10:24:10;;;;;;;3.42;2.42;;;26.00;99.90;;;;;;5027220;28;20044;-61
2022/08/08 10:26:46;;;;;;;8.07;2.55;;;26.00;99.90;;;;;;5032800;28;20029;-63
2022/08/08 10:29:12;;;;;;;4.50;2.28;;;25.80;99.90;;;;;;5030230;28;20022;-63
2022/08/08 10:34:25;;;;;;;4.07;2.30;;;26.20;99.90;;;;;;5022475;28;20552;-63
2022/08/08 10:36:52;;;;;;;5.55;3.13;;;26.00;99.90;;;;;;5025188;28;20479;-63
2022/08/08 10:39:23;;;;;;;8.23;2.40;;;26.00;99.90;;;;;;5025248;28;20380;-61
2022/08/08 10:42:00;;;;;;;4.85;2.50;;;26.10;99.90;;;;;;5018976;28;20038;-62
2022/08/08 10:44:38;;;;;;;3.25;2.35;;;26.20;99.90;;;;;;5018965;28;20029;-63
2022/08/08 10:47:15;;;;;;;4.07;2.10;;;26.20;99.90;;;;;;5018089;28;20041;-62
2022/08/08 10:49:48;;;;;;;4.45;2.25;;;26.10;99.80;;;;;;5020554;28;20577;-63
2022/08/08 10:52:31;;;;;;;4.25;2.30;;;26.20;99.80;;;;;;5033374;28;20026;-63
2022/08/08 10:55:01;;;;;;;12.30;2.28;;;26.50;99.50;;;;;;5025908;28;20457;-63
2022/08/08 10:57:27;;;;;;;9.40;2.35;;;26.60;99.20;;;;;;5025499;28;20032;-63
2022/08/08 10:59:54;;;;;;;6.35;2.38;;;26.80;98.50;;;;;;5030011;28;20403;-64
2022/08/08 11:02:24;;;;;;;6.07;2.35;;;27.10;97.80;;;;;;5028911;28;20037;-63
2022/08/08 11:04:50;;;;;;;12.15;1.90;;;27.40;97.30;;;;;;5033521;28;20033;-63
2022/08/08 11:07:36;;;;;;;2.97;1.70;;;27.30;98.00;;;;;;5023826;28;20033;-62
2022/08/08 11:10:13;;;;;;;4.45;2.13;;;27.30;96.00;;;;;;5020974;28;20403;-62
2022/08/08 11:12:54;;;;;;;2.83;1.88;;;27.30;95.80;;;;;;5027138;28;20021;-59
2022/08/08 11:15:22;;;;;;;3.03;2.17;;;27.00;95.90;;;;;;5010549;28;20534;-59
2022/08/08 11:17:49;;;;;;;2.90;1.50;;;27.00;95.30;;;;;;5023132;28;20037;-55
2022/08/08 11:20:17;;;;;;;5.07;2.00;;;26.80;96.20;;;;;;5025840;28;20041;-57
2022/08/08 11:22:57;;;;;;;3.03;1.63;;;27.00;96.50;;;;;;5027860;28;20111;-60
2022/08/08 11:25:28;;;;;;;5.15;2.25;;;27.60;96.00;;;;;;5028929;28;20036;-58
2022/08/08 11:27:55;;;;;;;5.90;2.10;;;27.80;95.10;;;;;;5027016;28;20024;-56
2022/08/08 11:30:23;;;;;;;4.28;2.50;;;27.60;95.40;;;;;;5022887;28;20033;-59
2022/08/08 11:32:52;;;;;;;3.35;2.00;;;27.30;94.70;;;;;;5026055;28;20076;-59
2022/08/08 11:35:20;;;;;;;2.53;2.08;;;27.30;95.50;;;;;;5027402;28;20032;-59
2022/08/08 11:37:46;;;;;;;6.43;2.10;;;27.60;94.60;;;;;;5026223;28;20036;-59
2022/08/08 11:40:12;;;;;;;4.07;2.50;;;27.60;95.10;;;;;;5029627;28;20398;-59
2022/08/08 11:42:42;;;;;;;5.05;2.17;;;27.80;94.20;;;;;;5029688;28;20052;-57
2022/08/08 11:45:09;;;;;;;4.05;1.70;;;27.50;94.30;;;;;;5026449;28;20034;-58
2022/08/08 11:47:36;;;;;;;5.30;1.67;;;27.70;93.60;;;;;;5026647;28;20053;-59
2022/08/08 11:50:05;;;;;;;3.60;2.25;;;27.80;93.30;;;;;;5023700;28;20029;-58
2022/08/08 11:52:32;;;;;;;4.43;2.13;;;27.70;93.10;;;;;;5028346;28;20029;-59
2022/08/08 11:54:58;;;;;;;7.13;2.45;;;27.60;93.60;;;;;;5025457;28;20104;-58
2022/08/08 11:57:27;;;;;;;5.28;2.13;;;27.60;92.80;;;;;;5023339;28;20049;-57
2022/08/08 12:00:01;;;;;;;3.33;2.28;;;27.80;92.80;;;;;;5026525;28;20107;-59
2022/08/08 12:02:28;;;;;;;5.03;2.13;;;27.70;92.90;;;;;;5032313;28;20029;-59
2022/08/08 12:05:02;;;;;;;4.13;2.33;;;27.80;93.10;;;;;;5032617;28;20026;-60
2022/08/08 12:07:28;;;;;;;4.07;2.40;;;28.10;94.10;;;;;;5032132;28;20124;-58
2022/08/08 12:09:55;;;;;;;4.88;2.67;;;28.00;92.60;;;;;;5032983;28;20100;-59
2022/08/08 12:12:25;;;;;;;5.53;2.85;;;28.00;92.70;;;;;;5033484;28;20049;-56
2022/08/08 12:15:01;;;;;;;5.68;2.47;;;27.90;92.10;;;;;;5033239;28;20022;-58
2022/08/08 12:17:38;;;;;;;5.80;2.63;;;27.70;92.90;;;;;;5032783;28;20407;-56
2022/08/08 12:20:05;;;;;;;4.55;2.60;;;27.90;93.00;;;;;;5025360;28;20079;-55
2022/08/08 12:22:31;;;;;;;5.47;2.95;;;27.90;93.50;;;;;;5032100;28;20037;-58
2022/08/08 12:24:58;;;;;;;4.45;2.50;;;27.90;92.80;;;;;;5033446;28;20392;-57
2022/08/08 12:27:23;;;;;;;3.75;2.42;;;28.20;93.30;;;;;;5026356;28;20029;-56
2022/08/08 12:29:58;;;;;;;2.88;2.22;;;28.40;93.30;;;;;;5029971;28;20387;-59
2022/08/08 12:32:24;;;;;;;2.33;1.90;;;28.90;91.40;;;;;;5032561;28;20013;-58
2022/08/08 12:34:56;;;;;;;2.72;2.20;;;28.80;91.20;;;;;;5026347;28;20033;-58
2022/08/08 12:37:25;;;;;;;3.25;2.42;;;28.70;91.40;;;;;;5026613;28;20029;-58
2022/08/08 12:39:51;;;;;;;11.63;2.83;;;28.90;91.60;;;;;;5027016;28;20037;-57
2022/08/08 12:42:17;;;;;;;4.90;2.88;;;29.10;91.20;;;;;;5032834;28;20056;-59
2022/08/08 12:44:44;;;;;;;4.70;2.78;;;29.00;90.20;;;;;;5014661;28;20033;-57
2022/08/08 12:47:10;;;;;;;4.10;2.25;;;28.80;90.40;;;;;;5032525;28;20025;-60
2022/08/08 12:49:38;;;;;;;3.10;2.20;;;28.90;90.60;;;;;;5033600;28;20026;-59
2022/08/08 12:52:05;;;;;;;6.43;3.90;;;28.90;90.50;;;;;;5040760;28;20090;-59
2022/08/08 12:54:36;;;;;;;4.68;2.30;;;28.70;90.10;;;;;;5022354;28;20116;-57
2022/08/08 12:57:12;;;;;;;3.42;2.60;;;28.80;91.30;;;;;;5039515;28;20048;-57
2022/08/08 12:59:50;;;;;;;5.28;2.97;;;29.00;90.00;;;;;;5036811;28;20025;-59
2022/08/08 13:02:24;;;;;;;5.03;2.88;;;28.90;90.40;;;;;;5042549;28;20395;-57
2022/08/08 13:04:50;;;;;;;;;;;29.10;90.10;;;;;;5032043;28;20046;-58
2022/08/08 13:07:16;;;;;;;5.43;2.42;;;29.50;89.80;;;;;;5035763;28;19923;-58
2022/08/08 13:09:56;;;;;;;5.68;2.38;;;29.50;88.70;;;;;;5022430;28;20453;-57
2022/08/08 13:12:27;;;;;;;4.28;2.60;;;29.70;88.20;;;;;;5034935;28;20503;-56
2022/08/08 13:14:55;;;;;;;5.80;2.42;;;29.60;88.30;;;;;;5038962;28;20083;-60
2022/08/08 13:17:26;;;;;;;6.18;2.65;;;29.60;87.30;;;;;;5038428;28;20037;-60
2022/08/08 13:19:55;;;;;;;4.20;2.67;;;29.20;87.00;;;;;;5035168;28;20029;-58
2022/08/08 13:22:21;;;;;;;4.75;2.30;;;29.50;87.90;;;;;;5039400;28;20057;-57
2022/08/08 13:24:47;;;;;;;4.72;2.90;;;29.70;86.60;;;;;;5035750;28;20025;-60
2022/08/08 13:27:35;;;;;;;5.45;2.65;;;29.70;85.40;;;;;;5038696;28;20030;-58